createdAt,value
2022-10-19T00:00:06.831Z,1.85
2022-10-19T00:02:55.534Z,1.73
2022-10-19T00:05:42.624Z,1.88
2022-10-19T00:08:29.683Z,2.00
2022-10-19T00:11:16.839Z,1.88
2022-10-19T00:14:04.183Z,1.67
2022-10-19T00:16:52.066Z,1.90
2022-10-19T00:19:40.781Z,1.40
2022-10-19T00:22:27.931Z,1.50
2022-10-19T00:25:14.722Z,1.47
2022-10-19T00:28:02.448Z,2.13
2022-10-19T00:33:41.178Z,2.10
2022-10-19T00:36:30.944Z,1.52
2022-10-19T00:39:18.719Z,1.48
2022-10-19T00:42:05.640Z,1.75
2022-10-19T00:45:03.379Z,1.63
2022-10-19T00:47:50.497Z,1.40
2022-10-19T00:50:37.610Z,1.60
2022-10-19T00:53:27.367Z,1.40
2022-10-19T00:56:16.232Z,1.95
2022-10-19T00:59:04.673Z,1.50
2022-10-19T01:01:51.757Z,1.60
2022-10-19T01:04:40.168Z,1.20
2022-10-19T01:07:27.792Z,1.42
2022-10-19T01:10:16.138Z,1.30
2022-10-19T01:13:09.322Z,1.73
2022-10-19T01:16:00.566Z,1.23
2022-10-19T01:18:53.535Z,1.27
2022-10-19T01:21:43.400Z,1.77
2022-10-19T01:24:40.570Z,1.80
2022-10-19T01:27:41.767Z,1.55
2022-10-19T01:30:34.387Z,1.40
2022-10-19T01:33:29.137Z,1.23
2022-10-19T01:36:20.758Z,1.30
2022-10-19T01:39:09.496Z,1.42
2022-10-19T01:42:00.184Z,0.98
2022-10-19T01:44:50.713Z,1.38
2022-10-19T01:47:41.993Z,1.23
2022-10-19T01:50:32.917Z,1.90
2022-10-19T01:53:20.765Z,1.20
2022-10-19T01:58:59.807Z,1.13
2022-10-19T02:01:48.558Z,1.50
2022-10-19T02:04:37.812Z,1.38
2022-10-19T02:07:26.578Z,1.10
2022-10-19T02:13:02.327Z,1.35
2022-10-19T02:18:39.552Z,1.00
2022-10-19T02:21:28.511Z,1.17
2022-10-19T02:24:15.564Z,1.30
2022-10-19T02:27:04.884Z,1.70
2022-10-19T02:29:51.762Z,1.30
2022-10-19T02:32:38.947Z,0.90
2022-10-19T02:35:25.686Z,1.10
2022-10-19T02:38:17.551Z,1.40
2022-10-19T02:41:06.797Z,1.73
2022-10-19T02:43:56.389Z,1.55
2022-10-19T02:46:45.650Z,1.23
2022-10-19T02:49:35.029Z,1.60
2022-10-19T02:52:22.131Z,1.30
2022-10-19T02:55:11.109Z,1.60
2022-10-19T02:57:58.356Z,0.98
2022-10-19T03:00:45.585Z,1.52
2022-10-19T03:03:32.341Z,1.00
2022-10-19T03:06:20.944Z,1.42
2022-10-19T03:09:08.095Z,1.40
2022-10-19T03:11:56.939Z,1.33
2022-10-19T03:14:43.926Z,1.25
2022-10-19T03:17:31.070Z,1.65
2022-10-19T03:20:18.214Z,1.27
2022-10-19T03:23:05.439Z,1.25
2022-10-19T03:25:52.801Z,1.27
2022-10-19T03:28:41.088Z,1.40
2022-10-19T03:31:28.168Z,1.15
2022-10-19T03:34:15.153Z,1.10
2022-10-19T03:37:02.239Z,1.10
2022-10-19T03:39:49.328Z,0.98
2022-10-19T03:42:37.015Z,1.10
2022-10-19T03:45:25.567Z,1.00
2022-10-19T03:48:12.522Z,1.20
2022-10-19T03:51:02.612Z,1.08
2022-10-19T03:53:50.114Z,1.27
2022-10-19T03:56:37.658Z,1.15
2022-10-19T03:59:24.401Z,1.20
2022-10-19T04:02:13.086Z,1.00
2022-10-19T04:05:00.205Z,1.20
2022-10-19T04:07:47.155Z,1.23
2022-10-19T04:10:34.389Z,1.25
2022-10-19T04:13:21.644Z,1.20
2022-10-19T04:16:09.236Z,0.85
2022-10-19T04:18:58.328Z,1.00
2022-10-19T04:21:45.416Z,1.13
2022-10-19T04:24:32.451Z,1.30
2022-10-19T04:27:19.647Z,0.77
2022-10-19T04:30:07.268Z,0.77
2022-10-19T04:32:54.151Z,0.85
2022-10-19T04:35:42.684Z,0.85
2022-10-19T04:38:30.674Z,1.10
2022-10-19T04:44:06.486Z,1.25
2022-10-19T04:46:54.742Z,0.77
2022-10-19T04:49:42.912Z,0.90
2022-10-19T04:52:31.241Z,0.88
2022-10-19T04:55:18.031Z,1.20
2022-10-19T04:58:05.003Z,0.90
2022-10-19T05:00:52.320Z,1.15
2022-10-19T05:03:39.781Z,1.13
2022-10-19T05:06:26.863Z,1.13
2022-10-19T05:09:15.497Z,1.70
2022-10-19T05:12:02.543Z,0.90
2022-10-19T05:14:49.667Z,1.40
2022-10-19T05:17:37.040Z,1.10
2022-10-19T05:23:11.700Z,1.65
2022-10-19T05:26:04.486Z,1.20
2022-10-19T05:28:56.198Z,1.08
2022-10-19T05:31:43.775Z,1.13
2022-10-19T05:34:31.256Z,0.98
2022-10-19T05:37:18.376Z,1.00
2022-10-19T05:40:06.014Z,0.98
2022-10-19T05:42:54.648Z,0.80
2022-10-19T05:45:41.798Z,0.80
2022-10-19T05:48:33.034Z,0.73
2022-10-19T05:51:21.042Z,1.00
2022-10-19T05:54:08.487Z,0.77
2022-10-19T05:56:55.696Z,0.90
2022-10-19T05:59:44.196Z,1.20
2022-10-19T06:02:31.547Z,1.20
2022-10-19T06:05:18.685Z,1.23
2022-10-19T06:08:06.036Z,1.10
2022-10-19T06:10:53.348Z,0.90
2022-10-19T06:13:40.528Z,1.17
2022-10-19T06:16:29.443Z,1.05
2022-10-19T06:19:16.665Z,1.30
2022-10-19T06:22:03.715Z,1.35
2022-10-19T06:24:51.771Z,1.27
2022-10-19T06:30:26.237Z,1.20
2022-10-19T06:33:14.997Z,1.40
2022-10-19T06:36:07.149Z,1.20
2022-10-19T06:38:54.152Z,0.90
2022-10-19T06:41:41.429Z,1.00
2022-10-19T06:44:40.471Z,1.30
2022-10-19T06:47:33.224Z,1.38
2022-10-19T06:50:21.858Z,1.30
2022-10-19T06:53:11.659Z,0.98
2022-10-19T06:55:59.818Z,1.50
2022-10-19T06:58:50.324Z,1.25
2022-10-19T07:01:37.292Z,1.15
2022-10-19T07:04:24.122Z,1.23
2022-10-19T07:07:12.921Z,1.50
2022-10-19T07:10:00.163Z,1.23
2022-10-19T07:12:47.466Z,1.50
2022-10-19T07:15:34.380Z,1.60
2022-10-19T07:18:21.686Z,1.48
2022-10-19T07:21:09.724Z,1.37
2022-10-19T07:23:58.469Z,1.30
2022-10-19T07:26:45.752Z,1.10
2022-10-19T07:29:33.188Z,1.10
2022-10-19T07:32:20.371Z,1.65
2022-10-19T07:35:07.840Z,1.20
2022-10-19T07:40:46.424Z,1.20
2022-10-19T07:43:35.294Z,1.13
2022-10-19T07:46:25.365Z,1.08
2022-10-19T07:49:13.771Z,1.15
2022-10-19T07:52:00.665Z,1.25
2022-10-19T07:54:49.515Z,1.20
2022-10-19T07:57:38.182Z,1.00
2022-10-19T08:00:25.476Z,1.23
2022-10-19T08:03:57.099Z,0.95
2022-10-19T08:06:20.139Z,1.00
2022-10-19T08:09:07.192Z,1.13
2022-10-19T08:11:54.189Z,1.15
2022-10-19T08:14:45.527Z,1.27
2022-10-19T08:17:32.661Z,1.13
2022-10-19T08:20:19.705Z,1.73
2022-10-19T08:23:07.001Z,1.33
2022-10-19T08:25:53.894Z,1.60
2022-10-19T08:28:41.191Z,1.30
2022-10-19T08:31:29.845Z,1.40
2022-10-19T08:34:16.967Z,1.48
2022-10-19T08:37:10.461Z,1.02
2022-10-19T08:40:07.848Z,1.20
2022-10-19T08:42:57.434Z,1.23
2022-10-19T08:45:45.968Z,1.50
2022-10-19T08:48:36.823Z,1.40
2022-10-19T08:51:24.164Z,1.15
2022-10-19T08:54:16.461Z,1.60
2022-10-19T08:57:07.253Z,1.92
2022-10-19T08:59:58.066Z,1.88
2022-10-19T09:02:51.142Z,1.00
2022-10-19T09:05:42.712Z,1.50
2022-10-19T09:08:30.171Z,1.90
2022-10-19T09:11:20.024Z,1.40
2022-10-19T09:14:12.332Z,1.35
2022-10-19T09:17:03.264Z,1.10
2022-10-19T09:19:50.142Z,1.00
2022-10-19T09:22:39.230Z,1.30
2022-10-19T09:25:28.554Z,1.33
2022-10-19T09:28:21.795Z,1.30
2022-10-19T09:31:20.225Z,1.55
2022-10-19T09:34:13.381Z,2.10
2022-10-19T09:37:01.175Z,1.80
2022-10-19T09:39:54.109Z,1.77
2022-10-19T09:42:42.210Z,1.80
2022-10-19T09:45:37.522Z,1.25
2022-10-19T09:48:28.670Z,1.58
2022-10-19T09:51:17.053Z,1.60
2022-10-19T09:54:04.054Z,1.98
2022-10-19T09:56:56.049Z,1.33
2022-10-19T09:59:44.300Z,1.40
2022-10-19T10:02:33.389Z,1.20
2022-10-19T10:05:22.328Z,1.13
2022-10-19T10:08:15.036Z,1.70
2022-10-19T10:11:07.962Z,1.73
2022-10-19T10:13:57.186Z,1.40
2022-10-19T10:16:44.422Z,1.20
2022-10-19T10:19:32.473Z,1.40
2022-10-19T10:22:26.345Z,1.77
2022-10-19T10:25:15.551Z,1.60
2022-10-19T10:28:03.932Z,1.60
2022-10-19T10:30:55.522Z,1.52
2022-10-19T10:33:46.261Z,1.38
2022-10-19T10:36:33.667Z,1.60
2022-10-19T10:39:20.984Z,1.38
2022-10-19T10:42:11.517Z,1.40
2022-10-19T10:44:58.975Z,1.50
2022-10-19T10:47:48.711Z,1.80
2022-10-19T10:50:37.072Z,1.08
2022-10-19T10:53:36.646Z,1.85
2022-10-19T10:56:25.886Z,1.40
2022-10-19T10:59:16.404Z,1.80
2022-10-19T11:02:04.555Z,1.50
2022-10-19T11:04:56.213Z,1.48
2022-10-19T11:07:45.266Z,1.48
2022-10-19T11:10:34.078Z,1.13
2022-10-19T11:13:25.361Z,1.23
2022-10-19T11:16:14.793Z,1.60
2022-10-19T11:19:07.702Z,1.42
2022-10-19T11:21:59.339Z,1.35
2022-10-19T11:24:58.334Z,1.75
2022-10-19T11:27:49.585Z,1.35
2022-10-19T11:30:41.820Z,1.40
2022-10-19T11:33:39.843Z,1.67
2022-10-19T11:36:34.621Z,1.25
2022-10-19T11:39:31.773Z,1.70
2022-10-19T11:42:21.386Z,1.55
2022-10-19T11:45:15.700Z,1.60
2022-10-19T11:48:12.197Z,1.52
2022-10-19T11:51:17.010Z,1.30
2022-10-19T11:54:14.904Z,1.65
2022-10-19T11:57:20.404Z,1.40
2022-10-19T12:00:20.919Z,1.52
2022-10-19T12:03:28.145Z,1.60
2022-10-19T12:06:19.496Z,1.60
2022-10-19T12:09:19.623Z,1.50
2022-10-19T12:12:13.494Z,1.40
2022-10-19T12:15:05.189Z,1.67
2022-10-19T12:17:53.752Z,1.63
2022-10-19T12:20:44.863Z,1.50
2022-10-19T12:23:33.589Z,1.85
2022-10-19T12:26:22.157Z,1.30
2022-10-19T12:29:15.796Z,1.55
2022-10-19T12:32:03.894Z,1.33
2022-10-19T12:34:55.648Z,1.58
2022-10-19T12:37:44.833Z,1.33
2022-10-19T12:40:35.016Z,1.77
2022-10-19T12:43:28.842Z,1.40
2022-10-19T12:46:21.377Z,1.58
2022-10-19T12:49:27.259Z,1.77
2022-10-19T12:52:15.840Z,1.33
2022-10-19T12:55:12.848Z,1.42
2022-10-19T12:58:04.546Z,1.13
2022-10-19T13:00:59.738Z,1.45
2022-10-19T13:06:34.631Z,1.63
2022-10-19T13:09:25.035Z,1.35
2022-10-19T13:12:45.208Z,1.23
2022-10-19T13:15:59.507Z,1.67
2022-10-19T13:19:09.976Z,1.15
2022-10-19T13:22:11.717Z,1.30
2022-10-19T13:25:21.350Z,2.00
2022-10-19T13:28:23.278Z,1.25
2022-10-19T13:31:25.040Z,1.40
2022-10-19T13:34:12.768Z,1.83
2022-10-19T13:37:06.024Z,1.33
2022-10-19T13:39:53.398Z,2.20
2022-10-19T13:42:42.043Z,1.85
2022-10-19T13:45:29.495Z,1.75
2022-10-19T13:51:04.944Z,1.17
2022-10-19T13:53:55.661Z,1.35
2022-10-19T13:56:53.083Z,1.30
2022-10-19T14:00:04.553Z,1.10
2022-10-19T14:03:12.811Z,1.10
2022-10-19T14:06:13.547Z,1.38
2022-10-19T14:09:11.130Z,1.20
2022-10-19T14:12:06.799Z,1.13
2022-10-19T14:14:54.376Z,1.45
2022-10-19T14:17:43.519Z,1.42
2022-10-19T14:20:33.414Z,1.23
2022-10-19T14:23:20.993Z,1.10
2022-10-19T14:26:13.070Z,1.50
2022-10-19T14:29:01.679Z,1.05
2022-10-19T14:31:48.651Z,1.20
2022-10-19T14:34:35.666Z,1.30
2022-10-19T14:40:27.754Z,1.40
2022-10-19T14:43:21.459Z,0.90
2022-10-19T14:46:13.281Z,0.80
2022-10-19T14:49:04.226Z,1.00
2022-10-19T14:51:53.166Z,1.08
2022-10-19T14:54:43.225Z,0.65
2022-10-19T14:57:34.833Z,0.95
2022-10-19T15:03:14.421Z,1.30
2022-10-19T15:06:03.069Z,1.13
2022-10-19T15:11:46.746Z,0.90
2022-10-19T15:14:35.483Z,1.30
2022-10-19T15:17:26.389Z,0.90
2022-10-19T15:20:24.095Z,0.65
2022-10-19T15:23:25.805Z,1.05
2022-10-19T15:26:17.649Z,0.63
2022-10-19T15:29:12.948Z,1.10
2022-10-19T15:32:15.272Z,0.80
2022-10-19T15:35:12.015Z,0.93
2022-10-19T15:38:02.668Z,0.90
2022-10-19T15:40:49.923Z,0.82
2022-10-19T15:43:37.929Z,1.10
2022-10-19T15:46:26.800Z,1.02
2022-10-19T15:49:28.987Z,1.33
2022-10-19T15:52:17.924Z,0.80
2022-10-19T15:55:05.565Z,1.00
2022-10-19T15:57:59.897Z,1.10
2022-10-19T16:00:47.111Z,1.08
2022-10-19T16:03:34.210Z,0.95
2022-10-19T16:06:22.173Z,1.25
2022-10-19T16:09:15.706Z,1.42
2022-10-19T16:12:02.864Z,0.80
2022-10-19T16:14:50.017Z,1.20
2022-10-19T16:17:37.063Z,1.10
2022-10-19T16:20:25.173Z,1.35
2022-10-19T16:23:12.903Z,1.58
2022-10-19T16:26:01.170Z,1.20
2022-10-19T16:28:48.729Z,1.08
2022-10-19T16:34:22.542Z,1.35
2022-10-19T16:37:09.689Z,1.40
2022-10-19T16:39:56.621Z,1.15
2022-10-19T16:42:44.956Z,1.63
2022-10-19T16:45:32.717Z,1.38
2022-10-19T16:51:29.034Z,1.60
2022-10-19T16:54:17.545Z,1.20
2022-10-19T16:57:09.572Z,1.10
2022-10-19T16:59:58.477Z,1.05
2022-10-19T17:02:46.572Z,1.40
2022-10-19T17:05:33.880Z,1.20
2022-10-19T17:08:23.885Z,1.40
2022-10-19T17:11:15.218Z,1.33
2022-10-19T17:14:03.733Z,1.10
2022-10-19T17:16:52.383Z,1.63
2022-10-19T17:19:39.864Z,1.58
2022-10-19T17:22:26.940Z,1.20
2022-10-19T17:25:13.989Z,1.17
2022-10-19T17:28:01.430Z,1.35
2022-10-19T17:30:49.235Z,1.38
2022-10-19T17:36:26.318Z,1.10
2022-10-19T17:39:14.766Z,1.52
2022-10-19T17:42:03.260Z,1.55
2022-10-19T17:44:50.328Z,1.70
2022-10-19T17:47:37.842Z,1.65
2022-10-19T17:50:25.363Z,1.52
2022-10-19T17:53:13.874Z,2.13
2022-10-19T17:56:02.046Z,1.75
2022-10-19T17:58:49.516Z,1.83
2022-10-19T18:04:24.192Z,1.92
2022-10-19T18:07:11.337Z,1.98
2022-10-19T18:09:59.752Z,2.10
2022-10-19T18:12:47.973Z,1.90
2022-10-19T18:15:35.048Z,2.13
2022-10-19T18:18:23.153Z,1.98
2022-10-19T18:23:59.162Z,1.50
2022-10-19T18:26:48.030Z,1.60
2022-10-19T18:29:35.303Z,1.80
2022-10-19T18:32:22.182Z,2.28
2022-10-19T18:35:10.340Z,2.05
2022-10-19T18:37:57.518Z,1.77
2022-10-19T18:40:44.389Z,1.90
2022-10-19T18:43:32.971Z,1.92
2022-10-19T18:46:20.355Z,1.70
2022-10-19T18:49:08.724Z,2.13
2022-10-19T18:51:56.374Z,2.08
2022-10-19T18:54:43.616Z,1.55
2022-10-19T18:57:31.831Z,2.25
2022-10-19T19:00:20.597Z,2.20
2022-10-19T19:03:07.714Z,2.30
2022-10-19T19:05:55.236Z,2.53
2022-10-19T19:11:35.887Z,1.67
2022-10-19T19:14:24.054Z,1.85
2022-10-19T19:17:12.580Z,2.00
2022-10-19T19:19:59.857Z,1.73
2022-10-19T19:22:47.019Z,1.65
2022-10-19T19:25:33.954Z,1.70
2022-10-19T19:28:20.920Z,1.83
2022-10-19T19:31:08.643Z,1.85
2022-10-19T19:33:57.120Z,2.00
2022-10-19T19:36:47.950Z,1.95
2022-10-19T19:39:36.243Z,2.28
2022-10-19T19:42:27.721Z,1.60
2022-10-19T19:45:14.984Z,2.20
2022-10-19T19:48:02.699Z,1.95
2022-10-19T19:50:51.351Z,1.50
2022-10-19T19:53:39.144Z,2.17
2022-10-19T19:56:26.801Z,2.08
2022-10-19T19:59:14.527Z,1.75
2022-10-19T20:02:01.956Z,1.40
2022-10-19T20:04:49.054Z,1.30
2022-10-19T20:07:40.093Z,1.92
2022-10-19T20:10:27.302Z,1.65
2022-10-19T20:13:14.520Z,1.85
2022-10-19T20:16:02.562Z,1.20
2022-10-19T20:18:50.943Z,1.52
2022-10-19T20:21:38.159Z,1.83
2022-10-19T20:24:26.983Z,2.13
2022-10-19T20:27:13.928Z,1.48
2022-10-19T20:30:00.815Z,1.95
2022-10-19T20:32:47.809Z,1.75
2022-10-19T20:35:37.615Z,1.80
2022-10-19T20:38:25.344Z,1.58
2022-10-19T20:44:00.548Z,1.75
2022-10-19T20:46:47.909Z,1.73
2022-10-19T20:49:35.002Z,1.40
2022-10-19T20:52:22.194Z,1.77
2022-10-19T20:55:12.320Z,1.70
2022-10-19T20:57:59.405Z,1.55
2022-10-19T21:00:47.751Z,1.90
2022-10-19T21:03:34.997Z,2.80
2022-10-19T21:06:22.774Z,2.58
2022-10-19T21:09:10.853Z,2.50
2022-10-19T21:11:58.447Z,2.50
2022-10-19T21:14:45.566Z,2.00
2022-10-19T21:17:34.115Z,1.98
2022-10-19T21:20:21.029Z,2.20
2022-10-19T21:23:08.321Z,2.30
2022-10-19T21:25:55.797Z,2.20
2022-10-19T21:28:47.084Z,2.08
2022-10-19T21:31:33.982Z,2.10
2022-10-19T21:34:23.474Z,2.10
2022-10-19T21:37:10.284Z,2.20
2022-10-19T21:39:57.450Z,1.95
2022-10-19T21:42:45.063Z,1.83
2022-10-19T21:45:32.175Z,2.13
2022-10-19T21:48:19.271Z,1.50
2022-10-19T21:51:14.611Z,2.10
2022-10-19T21:54:01.938Z,2.28
2022-10-19T21:56:50.303Z,2.33
2022-10-19T21:59:37.512Z,1.90
2022-10-19T22:02:24.637Z,1.83
2022-10-19T22:05:11.727Z,1.75
2022-10-19T22:08:00.255Z,1.70
2022-10-19T22:10:47.199Z,1.83
2022-10-19T22:13:33.755Z,1.85
2022-10-19T22:16:21.987Z,2.47
2022-10-19T22:19:10.064Z,2.35
2022-10-19T22:21:57.619Z,2.42
2022-10-19T22:24:46.175Z,2.00
2022-10-19T22:27:33.523Z,2.03
2022-10-19T22:30:20.500Z,1.92
2022-10-19T22:33:08.226Z,2.15
2022-10-19T22:38:42.629Z,2.15
2022-10-19T22:42:07.186Z,2.05
2022-10-19T22:44:55.933Z,2.08
2022-10-19T22:47:42.998Z,1.77
2022-10-19T22:50:29.875Z,2.30
2022-10-19T22:53:17.135Z,1.80
2022-10-19T22:56:03.992Z,1.80
2022-10-19T22:58:50.892Z,2.10
2022-10-19T23:01:40.069Z,1.70
2022-10-19T23:04:27.642Z,2.00
2022-10-19T23:07:14.943Z,1.85
2022-10-19T23:10:02.334Z,1.80
2022-10-19T23:12:53.571Z,1.42
2022-10-19T23:15:43.922Z,1.92
2022-10-19T23:18:33.848Z,1.73
2022-10-19T23:21:21.156Z,1.52
2022-10-19T23:24:08.462Z,1.80
2022-10-19T23:26:55.396Z,1.90
2022-10-19T23:29:42.492Z,1.85
2022-10-19T23:32:29.596Z,1.80
2022-10-19T23:35:18.330Z,1.58
2022-10-19T23:38:05.945Z,1.73
2022-10-19T23:40:52.833Z,1.58
2022-10-19T23:43:40.187Z,1.65
2022-10-19T23:46:29.046Z,1.90
2022-10-19T23:49:16.217Z,1.33
2022-10-19T23:52:05.213Z,1.55
2022-10-19T23:54:52.019Z,2.10
2022-10-19T23:57:39.348Z,1.65
